Time;durP1;ratioP1;P1;durP2;ratioP2;P2;SDS_P1;SDS_P2;PMS_P1;PMS_P2;Temp;Humidity;BMP_temperature;BMP_pressure;BME280_temperature;BME280_humidity;BME280_pressure;Samples;Min_cycle;Max_cycle;Signal;HPM_P1;HPM_P2
2022/06/21 00:01:14;;;;;;;5.88;2.30;;;13.60;99.90;;;;;;4808694;29;20043;-60
2022/06/21 00:03:42;;;;;;;10.00;2.40;;;13.60;99.90;;;;;;4824455;29;20139;-61
2022/06/21 00:06:11;;;;;;;9.50;2.88;;;13.60;99.90;;;;;;4808444;29;20073;-60
2022/06/21 00:08:37;;;;;;;9.65;2.65;;;13.60;99.90;;;;;;4824131;29;20095;-60
2022/06/21 00:11:11;;;;;;;6.60;2.58;;;13.60;99.90;;;;;;4824634;29;20088;-59
2022/06/21 00:13:36;;;;;;;7.13;2.40;;;13.60;99.90;;;;;;4824365;29;20095;-60
2022/06/21 00:16:06;;;;;;;9.00;3.47;;;13.60;99.90;;;;;;4808411;29;20138;-60
2022/06/21 00:18:34;;;;;;;7.78;2.80;;;13.60;99.90;;;;;;4824453;29;20187;-60
2022/06/21 00:21:01;;;;;;;7.25;2.67;;;13.60;99.90;;;;;;4793032;29;20118;-61
2022/06/21 00:23:31;;;;;;;10.13;3.00;;;13.60;99.90;;;;;;4823417;29;20054;-60
2022/06/21 00:25:58;;;;;;;9.30;3.17;;;13.60;99.90;;;;;;4824090;29;20062;-60
2022/06/21 00:28:24;;;;;;;8.20;2.33;;;13.60;99.90;;;;;;4823994;29;20050;-60
2022/06/21 00:30:52;;;;;;;7.22;2.58;;;13.50;99.90;;;;;;4823850;29;20447;-59
2022/06/21 00:33:24;;;;;;;9.75;2.80;;;13.40;99.90;;;;;;4808177;29;20446;-60
2022/06/21 00:35:56;;;;;;;7.47;2.90;;;13.30;99.90;;;;;;4807644;29;20118;-59
2022/06/21 00:38:48;;;;;;;11.43;3.17;;;13.30;99.90;;;;;;4824187;29;20397;-61
2022/06/21 00:41:16;;;;;;;11.20;2.75;;;13.30;99.90;;;;;;4804645;29;20074;-61
2022/06/21 00:43:49;;;;;;;7.90;2.63;;;13.30;99.90;;;;;;4823830;29;20401;-59
2022/06/21 00:46:54;;;;;;;8.48;3.03;;;13.30;99.90;;;;;;4824259;29;20065;-59
2022/06/21 00:49:31;;;;;;;11.10;3.03;;;13.20;99.90;;;;;;4749551;30;20044;-58
2022/06/21 00:52:10;;;;;;;10.77;3.38;;;13.20;99.90;;;;;;4799563;29;20073;-59
2022/06/21 00:54:46;;;;;;;10.23;3.50;;;13.20;99.90;;;;;;4824016;29;20592;-61
2022/06/21 00:57:18;;;;;;;7.15;2.90;;;13.10;99.90;;;;;;4824074;29;20057;-60
2022/06/21 00:59:46;;;;;;;7.13;3.00;;;13.10;99.90;;;;;;4807250;29;20054;-59
2022/06/21 01:02:20;;;;;;;10.77;3.80;;;13.10;99.90;;;;;;4823390;29;20129;-61
2022/06/21 01:04:50;;;;;;;9.85;3.72;;;13.00;99.90;;;;;;4823017;29;20145;-61
2022/06/21 01:07:16;;;;;;;7.95;2.88;;;13.00;99.90;;;;;;4823771;29;20233;-59
2022/06/21 01:09:51;;;;;;;5.80;3.00;;;12.90;99.90;;;;;;4823163;29;20046;-66
2022/06/21 01:12:24;;;;;;;;;;;12.90;99.90;;;;;;4807829;29;20473;-62
2022/06/21 01:14:55;;;;;;;9.95;3.70;;;12.90;99.90;;;;;;4823430;29;19933;-60
2022/06/21 01:17:21;;;;;;;7.10;3.13;;;12.90;99.90;;;;;;4823409;29;20054;-61
2022/06/21 01:19:51;;;;;;;8.02;3.30;;;12.90;99.90;;;;;;4791839;29;20050;-63
2022/06/21 01:22:26;;;;;;;9.25;3.20;;;12.90;99.90;;;;;;4823527;29;20081;-60
2022/06/21 01:25:01;;;;;;;11.98;3.30;;;12.90;99.90;;;;;;4823178;29;20145;-60
2022/06/21 01:27:28;;;;;;;7.03;3.28;;;12.90;99.90;;;;;;4807347;29;20142;-60
2022/06/21 01:29:55;;;;;;;10.15;3.72;;;12.80;99.90;;;;;;4823072;29;20443;-60
2022/06/21 01:32:21;;;;;;;8.93;3.35;;;12.80;99.90;;;;;;4823207;29;20519;-60
2022/06/21 01:34:47;;;;;;;8.38;3.50;;;12.90;99.90;;;;;;4822764;29;20050;-60
2022/06/21 01:37:20;;;;;;;10.80;3.65;;;12.90;99.90;;;;;;4823485;29;20089;-60
2022/06/21 01:40:01;;;;;;;11.23;3.90;;;12.90;99.90;;;;;;4822048;29;20062;-66
2022/06/21 01:42:36;;;;;;;9.05;3.70;;;12.80;99.90;;;;;;4823171;29;20398;-60
2022/06/21 01:45:09;;;;;;;11.07;3.78;;;12.80;99.90;;;;;;4822807;29;20450;-59
2022/06/21 01:47:50;;;;;;;8.85;3.83;;;12.70;99.90;;;;;;4823369;29;20462;-60
2022/06/21 01:50:17;;;;;;;7.82;3.22;;;12.70;99.90;;;;;;4823077;29;20474;-59
2022/06/21 01:52:46;;;;;;;10.50;3.63;;;12.70;99.90;;;;;;4823182;29;20420;-60
2022/06/21 01:55:21;;;;;;;10.15;3.97;;;12.70;99.90;;;;;;4822870;29;20050;-59
2022/06/21 01:57:49;;;;;;;8.85;3.63;;;12.60;99.90;;;;;;4822799;29;20050;-66
2022/06/21 02:00:15;;;;;;;9.35;3.80;;;12.70;99.90;;;;;;4806783;29;20221;-60
2022/06/21 02:02:49;;;;;;;9.23;4.05;;;12.70;99.90;;;;;;4822691;29;20056;-60
2022/06/21 02:05:31;;;;;;;10.10;4.20;;;12.70;99.90;;;;;;4823033;29;20058;-60
2022/06/21 02:08:01;;;;;;;9.52;3.75;;;12.70;99.90;;;;;;4806199;29;20062;-60
2022/06/21 02:10:41;;;;;;;7.60;4.28;;;12.70;99.90;;;;;;4806682;29;20089;-61
2022/06/21 02:13:31;;;;;;;12.48;4.63;;;12.70;99.90;;;;;;4822465;29;20050;-61
2022/06/21 02:16:02;;;;;;;10.20;4.45;;;12.60;99.90;;;;;;4805339;29;20058;-60
2022/06/21 02:18:32;;;;;;;9.27;4.05;;;12.60;99.90;;;;;;4822846;29;20047;-59
2022/06/21 02:21:18;;;;;;;9.68;4.70;;;12.60;99.90;;;;;;4822150;29;20513;-59
2022/06/21 02:23:49;;;;;;;10.60;4.55;;;12.60;99.90;;;;;;4822907;29;20515;-59
2022/06/21 02:26:15;;;;;;;7.25;3.55;;;12.60;99.90;;;;;;4821949;29;20058;-61
2022/06/21 02:28:42;;;;;;;14.57;4.28;;;12.50;99.90;;;;;;4822757;29;20496;-60
2022/06/21 02:31:09;;;;;;;8.57;3.92;;;12.50;99.90;;;;;;4806038;29;20405;-59
2022/06/21 02:33:36;;;;;;;8.40;3.60;;;12.50;99.90;;;;;;4806139;29;20051;-62
2022/06/21 02:36:11;;;;;;;11.75;3.83;;;12.50;99.90;;;;;;4822150;29;20058;-60
2022/06/21 02:38:55;;;;;;;7.47;3.88;;;12.50;99.90;;;;;;4822271;29;20058;-59
2022/06/21 02:41:45;;;;;;;12.07;4.47;;;12.50;99.90;;;;;;4822674;29;20111;-59
2022/06/21 02:44:15;;;;;;;7.38;3.60;;;12.50;99.90;;;;;;4821326;29;20513;-59
2022/06/21 02:46:46;;;;;;;10.07;4.38;;;12.50;99.90;;;;;;4822476;29;20056;-60
2022/06/21 02:49:14;;;;;;;9.45;4.00;;;12.40;99.90;;;;;;4821727;29;20046;-59
2022/06/21 02:51:48;;;;;;;9.25;3.85;;;12.50;99.90;;;;;;4822600;29;20099;-60
2022/06/21 02:54:54;;;;;;;9.50;3.97;;;12.40;99.90;;;;;;4822208;29;20057;-61
2022/06/21 02:57:42;;;;;;;16.33;3.90;;;12.40;99.90;;;;;;4769787;29;20066;-60
2022/06/21 03:00:13;;;;;;;11.55;3.88;;;12.40;99.90;;;;;;4822056;29;20054;-60
2022/06/21 03:02:38;;;;;;;11.85;4.07;;;12.40;99.90;;;;;;4822385;29;20051;-59
2022/06/21 03:05:13;;;;;;;13.60;4.22;;;12.40;99.90;;;;;;4821661;29;20057;-60
2022/06/21 03:07:41;;;;;;;8.20;3.88;;;12.40;99.90;;;;;;4805743;29;20517;-58
2022/06/21 03:10:17;;;;;;;12.98;4.28;;;12.30;99.90;;;;;;4821778;29;20073;-61
2022/06/21 03:12:42;;;;;;;10.95;3.75;;;12.30;99.90;;;;;;4822030;29;20114;-59
2022/06/21 03:15:11;;;;;;;6.82;3.75;;;12.30;99.90;;;;;;4821342;29;20496;-59
2022/06/21 03:17:45;;;;;;;9.13;4.40;;;12.30;99.90;;;;;;4822028;29;20058;-59
2022/06/21 03:20:15;;;;;;;10.80;4.05;;;12.20;99.90;;;;;;4821674;29;20043;-59
2022/06/21 03:22:41;;;;;;;8.77;4.22;;;12.20;99.90;;;;;;4821677;29;20054;-60
2022/06/21 03:25:25;;;;;;;12.50;3.85;;;12.20;99.90;;;;;;4821215;29;20175;-59
2022/06/21 03:27:57;;;;;;;8.27;3.90;;;12.20;99.90;;;;;;4824665;29;20059;-59
2022/06/21 03:30:35;;;;;;;7.97;4.22;;;12.20;99.90;;;;;;4824916;29;20038;-60
2022/06/21 03:33:03;;;;;;;9.55;4.20;;;12.20;99.90;;;;;;4824665;29;20047;-60
2022/06/21 03:35:33;;;;;;;7.28;3.95;;;12.20;99.90;;;;;;4824916;29;20130;-60
2022/06/21 03:37:59;;;;;;;9.00;4.03;;;12.30;99.90;;;;;;4825204;29;20102;-67
2022/06/21 03:43:19;;;;;;;9.63;4.55;;;12.30;99.90;;;;;;4824526;29;20480;-59
2022/06/21 03:45:47;;;;;;;6.78;4.43;;;12.30;99.90;;;;;;4824893;29;20133;-61
2022/06/21 03:48:27;;;;;;;6.65;4.10;;;12.40;99.90;;;;;;4793498;29;20129;-60
2022/06/21 03:51:05;;;;;;;9.98;4.32;;;12.40;99.90;;;;;;4824906;29;20087;-60
2022/06/21 03:53:38;;;;;;;6.75;4.45;;;12.40;99.90;;;;;;4824950;29;20129;-59
2022/06/21 03:56:15;;;;;;;7.82;4.50;;;12.50;99.90;;;;;;4824420;29;20066;-60
2022/06/21 03:58:47;;;;;;;6.97;4.15;;;12.60;99.90;;;;;;4824795;29;20050;-60
2022/06/21 04:01:26;;;;;;;9.52;4.32;;;12.60;99.90;;;;;;4824017;29;20051;-61
2022/06/21 04:04:01;;;;;;;9.35;4.30;;;12.70;99.90;;;;;;4808519;29;20050;-61
2022/06/21 04:06:45;;;;;;;9.10;4.82;;;12.70;99.90;;;;;;4824062;29;20104;-60
2022/06/21 04:09:32;;;;;;;10.25;3.88;;;12.80;99.90;;;;;;4824174;29;20397;-61
2022/06/21 04:12:06;;;;;;;8.82;4.20;;;12.80;99.90;;;;;;4824714;29;20382;-60
2022/06/21 04:14:49;;;;;;;10.65;4.63;;;12.90;99.90;;;;;;4824543;29;20082;-61
2022/06/21 04:17:41;;;;;;;9.75;4.32;;;13.00;99.90;;;;;;4824110;29;20409;-62
2022/06/21 04:20:14;;;;;;;5.60;3.83;;;13.00;99.90;;;;;;4824127;29;20057;-65
2022/06/21 04:22:50;;;;;;;8.05;4.00;;;13.10;99.90;;;;;;4824464;29;20054;-62
2022/06/21 04:25:26;;;;;;;7.90;4.15;;;13.10;99.90;;;;;;4807293;29;20055;-61
2022/06/21 04:28:07;;;;;;;8.63;4.20;;;13.10;99.90;;;;;;4824197;29;20078;-60
2022/06/21 04:30:39;;;;;;;6.05;3.75;;;13.10;99.90;;;;;;4823346;29;20054;-59
2022/06/21 04:33:15;;;;;;;6.65;3.75;;;13.20;99.90;;;;;;4824313;29;20046;-60
2022/06/21 04:36:05;;;;;;;9.55;3.75;;;13.20;99.90;;;;;;4824080;29;20409;-59
2022/06/21 04:38:47;;;;;;;7.05;3.80;;;13.30;99.90;;;;;;4823068;29;20047;-60
2022/06/21 04:41:31;;;;;;;8.52;3.70;;;13.30;99.90;;;;;;4823942;29;20050;-60
2022/06/21 04:44:12;;;;;;;11.05;4.30;;;13.30;99.90;;;;;;4824237;29;20137;-60
2022/06/21 04:46:52;;;;;;;6.95;3.83;;;13.40;99.90;;;;;;4807819;29;20051;-59
2022/06/21 04:49:26;;;;;;;8.10;3.95;;;13.40;99.90;;;;;;4823681;29;20046;-60
2022/06/21 04:52:11;;;;;;;9.10;4.10;;;13.50;99.90;;;;;;4824047;29;20046;-60
2022/06/21 04:54:38;;;;;;;11.13;3.78;;;13.70;99.90;;;;;;4823915;29;20054;-60
2022/06/21 04:57:24;;;;;;;8.40;4.20;;;13.80;99.90;;;;;;4823856;29;20429;-62
2022/06/21 04:59:57;;;;;;;10.40;3.70;;;14.20;99.90;;;;;;4823798;29;20108;-60
2022/06/21 05:02:38;;;;;;;6.38;2.95;;;15.20;99.90;;;;;;4823599;29;20062;-60
2022/06/21 05:05:12;;;;;;;7.10;3.28;;;16.50;99.90;;;;;;4823806;29;20065;-62
2022/06/21 05:07:42;;;;;;;8.55;3.22;;;;;;;;;;4807432;29;20256;-59
2022/06/21 05:10:14;;;;;;;9.35;2.65;;;;;;;;;;4807351;29;20050;-60
2022/06/21 05:12:42;;;;;;;6.47;2.80;;;17.70;99.90;;;;;;4823660;29;20058;-61
2022/06/21 05:15:18;;;;;;;6.35;2.88;;;20.60;99.90;;;;;;4823671;29;20058;-61
2022/06/21 05:17:54;;;;;;;8.48;2.78;;;21.20;99.90;;;;;;4823569;29;20054;-60
2022/06/21 05:20:24;;;;;;;7.57;2.83;;;21.60;99.40;;;;;;4822986;29;20089;-59
2022/06/21 05:22:54;;;;;;;6.05;2.80;;;22.00;99.70;;;;;;4823525;29;20089;-60
2022/06/21 05:25:29;;;;;;;5.95;2.40;;;22.00;98.50;;;;;;4822548;29;20073;-61
2022/06/21 05:28:09;;;;;;;6.57;2.53;;;22.00;98.90;;;;;;4823408;29;20059;-62
2022/06/21 05:30:44;;;;;;;7.07;2.58;;;21.90;98.60;;;;;;4806643;29;20098;-60
2022/06/21 05:33:33;;;;;;;6.60;2.50;;;21.90;98.50;;;;;;4806810;29;20390;-61
2022/06/21 05:36:06;;;;;;;6.20;2.50;;;21.90;99.30;;;;;;4813512;29;20066;-59
2022/06/21 05:38:35;;;;;;;4.72;2.40;;;22.10;98.50;;;;;;4823041;29;20069;-60
2022/06/21 05:41:29;;;;;;;5.70;2.83;;;22.60;97.40;;;;;;4823181;29;20479;-60
2022/06/21 05:44:02;;;;;;;7.95;2.70;;;22.90;97.70;;;;;;4823099;29;20058;-62
2022/06/21 05:46:31;;;;;;;5.73;2.77;;;23.10;96.00;;;;;;4822932;29;20046;-60
2022/06/21 05:48:59;;;;;;;8.95;2.53;;;23.50;97.00;;;;;;4822821;29;20704;-60
2022/06/21 05:51:30;;;;;;;6.07;2.30;;;23.90;95.00;;;;;;4822802;29;20057;-60
2022/06/21 05:54:04;;;;;;;8.43;2.90;;;24.40;94.10;;;;;;4806728;29;20050;-60
2022/06/21 05:56:31;;;;;;;;;;;24.90;94.40;;;;;;4823321;29;20114;-60
2022/06/21 05:59:12;;;;;;;6.55;2.63;;;25.20;92.90;;;;;;4822702;29;20015;-60
2022/06/21 06:01:53;;;;;;;5.38;2.47;;;25.60;92.60;;;;;;4822723;29;20054;-62
2022/06/21 06:04:22;;;;;;;5.47;2.13;;;25.90;92.20;;;;;;4806284;29;20046;-66
2022/06/21 06:06:48;;;;;;;6.25;2.85;;;26.00;91.70;;;;;;4822723;29;20050;-59
2022/06/21 06:09:22;;;;;;;8.20;2.50;;;26.10;91.50;;;;;;4822223;29;20061;-59
2022/06/21 06:12:22;;;;;;;5.88;2.20;;;26.40;91.40;;;;;;4822748;29;20050;-60
2022/06/21 06:15:17;;;;;;;6.20;2.03;;;26.30;91.00;;;;;;4822857;29;20058;-58
2022/06/21 06:17:51;;;;;;;5.40;2.42;;;25.70;91.00;;;;;;4822219;29;20577;-59
2022/06/21 06:20:45;;;;;;;6.53;2.10;;;24.90;91.40;;;;;;4822811;29;20081;-60
2022/06/21 06:23:29;;;;;;;6.18;1.90;;;23.90;92.30;;;;;;4822732;29;20440;-60
2022/06/21 06:26:12;;;;;;;6.75;2.20;;;22.80;93.10;;;;;;4822389;29;20058;-63
2022/06/21 06:29:11;;;;;;;6.50;1.92;;;22.20;94.10;;;;;;4821728;29;20054;-61
2022/06/21 06:31:57;;;;;;;9.70;3.03;;;21.80;94.40;;;;;;4822321;29;20070;-61
2022/06/21 06:34:28;;;;;;;5.97;2.20;;;21.50;94.80;;;;;;4806056;29;20062;-68
2022/06/21 06:37:01;;;;;;;6.78;2.30;;;21.20;94.80;;;;;;4822705;29;20058;-61
2022/06/21 06:39:33;;;;;;;5.05;2.50;;;21.00;95.40;;;;;;4821127;29;20481;-60
2022/06/21 06:42:10;;;;;;;5.70;2.28;;;20.50;95.70;;;;;;4822304;29;20050;-60
2022/06/21 06:44:42;;;;;;;4.85;2.10;;;20.20;96.40;;;;;;4821926;29;20050;-60
2022/06/21 06:47:13;;;;;;;4.07;2.00;;;20.10;96.90;;;;;;4822414;29;20050;-60
2022/06/21 06:49:43;;;;;;;4.93;2.30;;;19.90;96.70;;;;;;4805777;29;20457;-66
2022/06/21 06:52:27;;;;;;;5.10;2.33;;;19.70;97.00;;;;;;4822408;29;20074;-61
2022/06/21 06:54:59;;;;;;;7.35;2.42;;;19.60;97.20;;;;;;4822515;29;20129;-64
2022/06/21 06:57:31;;;;;;;5.63;2.00;;;19.60;97.60;;;;;;4822320;29;20528;-66
2022/06/21 06:59:59;;;;;;;4.82;2.17;;;19.70;97.50;;;;;;4806401;29;20107;-62
2022/06/21 07:02:37;;;;;;;5.85;2.10;;;19.90;97.10;;;;;;4808513;29;20090;-68
2022/06/21 07:05:31;;;;;;;8.45;2.65;;;19.90;96.60;;;;;;4825819;29;20382;-63
2022/06/21 07:08:12;;;;;;;7.38;3.00;;;19.90;96.70;;;;;;4791850;29;20062;-61
2022/06/21 07:10:37;;;;;;;4.90;2.20;;;20.00;97.30;;;;;;4808730;29;20065;-63
2022/06/21 07:13:03;;;;;;;6.78;2.60;;;21.20;97.10;;;;;;4825921;29;20058;-60
2022/06/21 07:15:39;;;;;;;8.30;2.42;;;22.30;95.60;;;;;;4825225;29;20050;-64
2022/06/21 07:18:12;;;;;;;5.93;2.30;;;23.20;94.10;;;;;;4809643;29;20060;-61
2022/06/21 07:20:43;;;;;;;5.97;2.33;;;23.80;93.30;;;;;;4809309;29;20050;-61
2022/06/21 07:23:14;;;;;;;5.70;2.25;;;24.20;92.90;;;;;;4825465;29;20066;-62
2022/06/21 07:25:57;;;;;;;5.05;2.20;;;24.50;91.90;;;;;;4824768;29;20713;-60
2022/06/21 07:28:39;;;;;;;6.28;2.20;;;24.50;91.90;;;;;;4825537;29;20101;-61
2022/06/21 07:31:26;;;;;;;5.68;2.17;;;24.80;92.00;;;;;;4780457;29;20401;-61
2022/06/21 07:33:58;;;;;;;5.50;2.35;;;25.80;91.50;;;;;;4825100;29;20405;-62
2022/06/21 07:36:30;;;;;;;6.20;2.50;;;26.50;90.40;;;;;;4824216;29;20070;-61
2022/06/21 07:39:04;;;;;;;7.22;2.75;;;27.30;90.20;;;;;;4825085;29;20082;-61
2022/06/21 07:41:37;;;;;;;7.88;2.80;;;27.60;88.60;;;;;;4825141;29;20396;-68
2022/06/21 07:44:12;;;;;;;7.63;2.50;;;28.10;87.50;;;;;;4825199;29;20054;-61
2022/06/21 07:46:43;;;;;;;5.72;2.38;;;28.60;87.00;;;;;;4824354;29;20054;-61
2022/06/21 07:49:22;;;;;;;5.15;2.10;;;28.30;85.80;;;;;;4825064;29;20057;-62
2022/06/21 07:51:54;;;;;;;5.47;2.30;;;27.50;87.30;;;;;;4824648;29;20050;-61
2022/06/21 07:54:33;;;;;;;7.22;2.60;;;26.70;87.30;;;;;;4808679;29;20067;-61
2022/06/21 07:57:06;;;;;;;5.68;2.28;;;25.80;88.40;;;;;;4824925;29;20109;-62
2022/06/21 07:59:44;;;;;;;5.05;2.30;;;25.40;90.10;;;;;;4824810;29;20046;-66
2022/06/21 08:08:36;;;;;;;4.15;2.10;;;27.50;86.50;;;;;;4808718;29;20054;-62
2022/06/21 08:11:28;;;;;;;4.13;2.03;;;28.40;84.80;;;;;;4824792;29;20050;-61
2022/06/21 08:13:53;;;;;;;4.75;2.10;;;28.90;84.00;;;;;;4812762;29;20062;-61
2022/06/21 08:16:24;;;;;;;3.83;2.00;;;29.50;83.40;;;;;;4824722;29;20050;-62
2022/06/21 08:19:23;;;;;;;6.95;2.13;;;29.90;82.60;;;;;;4824185;29;20057;-63
2022/06/21 08:22:02;;;;;;;5.53;2.00;;;30.20;81.50;;;;;;4808062;29;20065;-62
2022/06/21 08:24:39;;;;;;;7.55;2.60;;;30.30;81.70;;;;;;4808048;29;20106;-62
2022/06/21 08:27:20;;;;;;;4.95;2.20;;;29.90;79.60;;;;;;4808869;29;20050;-62
2022/06/21 08:30:08;;;;;;;5.20;2.00;;;29.50;80.40;;;;;;4823996;29;20046;-61
2022/06/21 08:32:40;;;;;;;6.57;2.17;;;29.40;80.10;;;;;;4824459;29;20512;-62
2022/06/21 08:35:33;;;;;;;6.60;2.22;;;29.30;80.30;;;;;;4824249;29;20058;-65
2022/06/21 08:38:33;;;;;;;5.70;2.13;;;29.60;80.50;;;;;;4823566;29;20129;-62
2022/06/21 08:44:32;;;;;;;5.43;2.13;;;29.60;80.10;;;;;;4823577;29;20061;-60
2022/06/21 08:47:47;;;;;;;3.78;1.88;;;29.00;80.10;;;;;;4823312;29;20096;-61
2022/06/21 08:50:32;;;;;;;3.58;1.98;;;27.80;79.60;;;;;;4823756;29;20141;-60
2022/06/21 08:53:01;;;;;;;5.82;2.20;;;27.70;81.70;;;;;;4807331;29;20051;-60
2022/06/21 08:55:32;;;;;;;5.53;2.22;;;28.20;81.60;;;;;;4824005;29;20232;-60
2022/06/21 08:58:05;;;;;;;4.13;1.90;;;28.90;80.70;;;;;;4823699;29;20050;-60
2022/06/21 09:00:40;;;;;;;3.75;2.08;;;29.20;79.90;;;;;;4823781;29;20138;-62
2022/06/21 09:03:08;;;;;;;7.53;2.70;;;29.40;78.80;;;;;;4823561;29;20055;-62
2022/06/21 09:05:50;;;;;;;6.60;2.35;;;29.30;79.30;;;;;;4807443;29;20089;-61
2022/06/21 09:08:19;;;;;;;4.03;2.28;;;29.50;79.70;;;;;;4807381;29;20398;-61
2022/06/21 09:10:56;;;;;;;5.10;2.28;;;29.40;78.30;;;;;;4820988;29;20054;-62
2022/06/21 09:14:16;;;;;;;4.72;2.00;;;29.60;79.30;;;;;;4823007;29;20050;-60
2022/06/21 09:16:42;;;;;;;6.03;2.20;;;29.90;78.30;;;;;;4748981;30;20056;-67
2022/06/21 09:19:32;;;;;;;3.85;1.88;;;30.20;77.90;;;;;;4807392;29;20489;-60
2022/06/21 09:22:25;;;;;;;7.38;2.22;;;29.70;77.90;;;;;;4822539;29;20046;-61
2022/06/21 09:25:32;;;;;;;7.17;2.33;;;29.80;77.60;;;;;;4806231;29;20432;-60
2022/06/21 09:28:10;;;;;;;5.50;2.03;;;29.50;78.30;;;;;;4806744;29;20058;-60
2022/06/21 09:31:07;;;;;;;8.43;2.58;;;29.10;77.60;;;;;;4823478;29;20102;-60
2022/06/21 09:33:42;;;;;;;3.97;2.03;;;28.70;77.60;;;;;;4788780;29;20068;-60
2022/06/21 09:36:14;;;;;;;8.75;2.15;;;28.40;78.00;;;;;;4806615;29;20123;-63
2022/06/21 09:39:23;;;;;;;5.22;2.17;;;27.80;78.30;;;;;;4807019;29;20054;-60
2022/06/21 09:42:06;;;;;;;5.32;2.67;;;27.30;78.60;;;;;;4787520;29;20054;-60
2022/06/21 09:45:13;;;;;;;5.53;2.20;;;26.90;79.50;;;;;;4823183;29;20054;-61
2022/06/21 09:48:08;;;;;;;4.07;2.00;;;26.40;79.20;;;;;;4805883;29;20058;-60
2022/06/21 09:50:46;;;;;;;4.65;2.55;;;26.60;80.70;;;;;;4806415;29;20517;-59
2022/06/21 09:53:48;;;;;;;7.50;2.35;;;27.00;80.30;;;;;;4822748;29;20065;-59
2022/06/21 09:56:46;;;;;;;5.15;2.20;;;27.30;80.30;;;;;;4812604;29;20066;-59
2022/06/21 09:59:40;;;;;;;7.10;2.47;;;27.90;80.70;;;;;;4806586;29;20150;-61
2022/06/21 10:02:43;;;;;;;5.97;1.98;;;28.20;81.70;;;;;;4822581;29;20050;-59
2022/06/21 10:05:25;;;;;;;4.73;2.20;;;28.50;78.90;;;;;;4805811;29;20054;-60
2022/06/21 10:07:57;;;;;;;4.20;2.03;;;28.40;77.70;;;;;;4822201;29;20050;-60
2022/06/21 10:10:50;;;;;;;4.93;2.17;;;28.10;77.60;;;;;;4823080;29;20604;-61
2022/06/21 10:13:21;;;;;;;6.72;2.40;;;27.40;78.40;;;;;;4822823;29;20054;-61
2022/06/21 10:16:04;;;;;;;6.85;2.35;;;26.70;79.40;;;;;;4822704;29;20046;-61
2022/06/21 10:18:34;;;;;;;5.13;2.40;;;26.00;80.60;;;;;;4822984;29;20055;-60
2022/06/21 10:21:41;;;;;;;5.75;2.05;;;25.60;80.70;;;;;;4822478;29;20141;-61
2022/06/21 10:24:27;;;;;;;4.25;2.15;;;25.60;80.90;;;;;;4821631;29;20094;-61
2022/06/21 10:27:30;;;;;;;5.43;2.22;;;25.80;81.00;;;;;;4822716;29;20062;-61
2022/06/21 10:30:06;;;;;;;8.80;2.00;;;25.70;81.70;;;;;;4822679;29;20381;-61
2022/06/21 10:32:54;;;;;;;4.78;2.00;;;25.30;83.10;;;;;;4806552;29;20066;-64
2022/06/21 10:35:40;;;;;;;5.55;2.00;;;25.40;81.70;;;;;;4822272;29;20054;-62
2022/06/21 10:38:08;;;;;;;5.43;1.75;;;25.60;80.40;;;;;;4822325;29;20058;-60
2022/06/21 10:40:49;;;;;;;5.35;1.73;;;25.70;80.90;;;;;;4822545;29;20051;-61
2022/06/21 10:43:17;;;;;;;4.60;1.70;;;25.50;80.40;;;;;;4822109;29;20190;-59
2022/06/21 10:46:05;;;;;;;5.45;1.67;;;25.40;79.30;;;;;;4822283;29;20089;-60
2022/06/21 10:48:56;;;;;;;3.92;1.48;;;25.40;80.40;;;;;;4806213;29;20396;-60
2022/06/21 10:52:00;;;;;;;2.58;1.40;;;25.60;79.60;;;;;;4822388;29;20065;-60
2022/06/21 10:54:45;;;;;;;;;;;25.60;78.70;;;;;;4779334;29;20060;-60
2022/06/21 10:57:51;;;;;;;3.67;1.40;;;25.70;78.50;;;;;;4822110;29;19940;-61
2022/06/21 11:03:38;;;;;;;5.22;1.77;;;25.50;76.90;;;;;;4822252;29;20054;-61
2022/06/21 11:06:16;;;;;;;5.00;1.70;;;25.20;79.30;;;;;;4822181;29;20054;-60
2022/06/21 11:09:07;;;;;;;3.10;1.50;;;25.10;78.70;;;;;;4806186;29;20494;-60
2022/06/21 11:11:55;;;;;;;5.30;1.52;;;25.30;79.90;;;;;;4805856;29;20050;-62
2022/06/21 11:14:33;;;;;;;3.97;1.88;;;25.30;79.40;;;;;;4822135;29;20054;-60
2022/06/21 11:17:26;;;;;;;2.95;1.85;;;25.40;79.50;;;;;;4822197;29;20057;-67
2022/06/21 11:20:21;;;;;;;4.25;1.60;;;25.40;80.80;;;;;;4822420;29;20054;-60
2022/06/21 11:23:12;;;;;;;3.90;1.80;;;25.40;80.10;;;;;;4822469;29;20085;-59
2022/06/21 11:25:41;;;;;;;3.65;1.88;;;25.40;80.00;;;;;;4805538;29;20146;-61
2022/06/21 11:28:31;;;;;;;6.30;2.20;;;25.40;80.00;;;;;;4821733;29;20054;-59
2022/06/21 11:31:02;;;;;;;7.25;1.80;;;25.20;80.10;;;;;;4806255;29;20405;-60
2022/06/21 11:33:40;;;;;;;7.32;2.33;;;25.20;79.60;;;;;;4822531;29;20050;-62
2022/06/21 11:36:25;;;;;;;5.18;1.60;;;25.10;79.80;;;;;;4821892;29;20058;-62
2022/06/21 11:39:14;;;;;;;5.03;1.70;;;25.10;80.60;;;;;;4822272;29;20426;-61
2022/06/21 11:42:08;;;;;;;5.00;1.83;;;25.20;79.50;;;;;;4822384;29;20164;-61
2022/06/21 11:45:03;;;;;;;6.15;1.77;;;25.20;80.00;;;;;;4791223;29;20054;-59
2022/06/21 11:47:38;;;;;;;4.43;1.95;;;25.20;80.00;;;;;;4823264;29;20047;-60
2022/06/21 11:50:20;;;;;;;6.32;2.25;;;25.10;79.50;;;;;;4824792;29;20058;-60
2022/06/21 11:53:02;;;;;;;4.30;1.80;;;25.20;79.80;;;;;;4825217;29;20413;-61
2022/06/21 11:55:51;;;;;;;5.97;1.92;;;25.10;80.20;;;;;;4825179;29;20129;-60
2022/06/21 11:58:24;;;;;;;5.15;2.13;;;25.00;80.80;;;;;;4824766;29;20493;-60
2022/06/21 12:01:19;;;;;;;3.90;1.67;;;24.90;80.70;;;;;;4825216;29;20451;-60
2022/06/21 12:04:04;;;;;;;4.72;1.50;;;24.80;80.60;;;;;;4825143;29;20489;-60
2022/06/21 12:06:37;;;;;;;2.90;1.48;;;24.80;78.70;;;;;;4825126;29;20104;-60
2022/06/21 12:09:22;;;;;;;4.18;1.42;;;24.80;79.90;;;;;;4824917;29;20500;-60
2022/06/21 12:12:05;;;;;;;5.30;1.55;;;24.90;80.70;;;;;;4824757;29;20057;-61
2022/06/21 12:14:39;;;;;;;3.75;1.50;;;25.00;79.10;;;;;;4824903;29;20507;-61
2022/06/21 12:17:20;;;;;;;5.78;1.77;;;25.10;79.80;;;;;;4808358;29;20066;-62
2022/06/21 12:19:51;;;;;;;4.60;1.40;;;25.20;80.00;;;;;;4808767;29;20504;-61
2022/06/21 12:22:35;;;;;;;4.35;1.80;;;25.20;78.80;;;;;;4824573;29;20130;-59
2022/06/21 12:25:00;;;;;;;;;;;25.00;78.80;;;;;;4824953;29;20058;-60
2022/06/21 12:27:26;;;;;;;6.35;1.92;;;25.00;79.70;;;;;;4823923;29;20344;-61
2022/06/21 12:30:00;;;;;;;4.65;1.83;;;25.10;79.80;;;;;;4808327;29;20133;-61
2022/06/21 12:32:27;;;;;;;3.72;1.55;;;25.10;79.70;;;;;;4824323;29;20389;-60
2022/06/21 12:35:03;;;;;;;7.78;1.60;;;25.00;81.70;;;;;;4824582;29;20090;-60
2022/06/21 12:37:49;;;;;;;4.15;1.88;;;25.00;80.90;;;;;;4824057;29;20050;-61
2022/06/21 12:40:30;;;;;;;3.50;1.60;;;24.90;82.00;;;;;;4823981;29;20549;-61
2022/06/21 12:43:23;;;;;;;6.80;2.08;;;24.90;82.00;;;;;;4824584;29;20046;-61
2022/06/21 12:46:12;;;;;;;4.40;1.80;;;24.90;81.70;;;;;;4824377;29;20050;-60
2022/06/21 12:48:49;;;;;;;3.83;1.65;;;25.10;81.70;;;;;;4823941;29;20057;-60
2022/06/21 12:51:54;;;;;;;4.85;1.60;;;25.10;81.00;;;;;;4807414;29;20058;-60
2022/06/21 12:54:40;;;;;;;4.03;1.60;;;24.90;81.40;;;;;;4785955;29;20058;-60
2022/06/21 12:57:30;;;;;;;4.35;1.90;;;24.90;81.90;;;;;;4824125;29;20103;-61
2022/06/21 12:59:56;;;;;;;4.45;1.73;;;24.70;81.70;;;;;;4806977;29;20046;-61
2022/06/21 13:02:46;;;;;;;4.53;1.65;;;24.60;81.90;;;;;;4823655;29;20050;-60
2022/06/21 13:05:36;;;;;;;3.15;1.55;;;24.50;81.90;;;;;;4823834;29;20046;-60
2022/06/21 13:08:26;;;;;;;5.20;1.70;;;24.60;82.00;;;;;;4824027;29;20137;-62
2022/06/21 13:11:24;;;;;;;5.68;1.80;;;24.80;83.00;;;;;;4823593;29;20509;-60
2022/06/21 13:14:19;;;;;;;3.47;1.63;;;24.90;83.30;;;;;;4824007;29;20050;-60
2022/06/21 13:16:59;;;;;;;14.40;2.20;;;25.00;83.00;;;;;;4808691;29;20066;-60
2022/06/21 13:19:34;;;;;;;4.75;1.65;;;25.10;81.90;;;;;;4807208;29;20485;-60
2022/06/21 13:22:16;;;;;;;6.15;1.95;;;24.70;80.50;;;;;;4823790;29;20054;-61
2022/06/21 13:25:15;;;;;;;4.03;1.92;;;24.80;81.40;;;;;;4823582;29;20501;-59
2022/06/21 13:28:01;;;;;;;2.92;1.45;;;24.60;79.80;;;;;;4807306;29;20050;-59
2022/06/21 13:30:48;;;;;;;3.85;1.55;;;24.40;81.20;;;;;;4822800;29;20099;-60
2022/06/21 13:33:49;;;;;;;4.70;1.80;;;24.40;81.20;;;;;;4823611;29;20065;-60
2022/06/21 13:36:45;;;;;;;4.30;1.83;;;24.50;80.80;;;;;;4806799;29;20057;-63
2022/06/21 13:39:19;;;;;;;7.10;1.85;;;24.50;80.30;;;;;;4817299;29;20111;-61
2022/06/21 13:44:45;;;;;;;3.80;1.55;;;24.60;81.50;;;;;;4823180;29;20546;-62
2022/06/21 13:47:22;;;;;;;5.00;1.88;;;24.60;82.10;;;;;;4823505;29;20054;-62
2022/06/21 13:49:52;;;;;;;6.80;1.60;;;24.60;82.10;;;;;;4823320;29;20110;-59
2022/06/21 13:52:44;;;;;;;4.95;1.92;;;24.70;82.40;;;;;;4806703;29;20058;-60
2022/06/21 13:55:33;;;;;;;6.35;1.73;;;24.80;82.50;;;;;;4785083;29;20482;-61
2022/06/21 13:58:22;;;;;;;5.43;1.90;;;24.80;82.60;;;;;;4823312;29;20137;-60
2022/06/21 14:01:02;;;;;;;5.18;1.63;;;24.60;83.70;;;;;;4807023;29;20141;-62
2022/06/21 14:04:01;;;;;;;3.92;1.95;;;24.50;84.10;;;;;;4822877;29;20062;-61
2022/06/21 14:06:40;;;;;;;3.83;1.52;;;24.60;83.70;;;;;;4806177;29;20504;-61